createdAt,value
2022-09-14T03:03:51.192Z,17.60
2022-09-14T03:06:17.912Z,21.40
2022-09-14T03:08:44.583Z,20.10
2022-09-14T03:11:11.530Z,20.80
2022-09-14T03:13:38.225Z,19.70
2022-09-14T03:16:09.379Z,19.00
2022-09-14T03:18:36.502Z,17.60
2022-09-14T03:21:09.954Z,19.60
2022-09-14T03:23:37.686Z,17.70
2022-09-14T03:26:11.995Z,20.20
2022-09-14T03:28:38.852Z,17.70
2022-09-14T03:31:06.458Z,17.60
2022-09-14T03:33:33.676Z,17.70
2022-09-14T03:36:00.577Z,15.30
2022-09-14T03:38:30.155Z,19.40
2022-09-14T03:40:58.188Z,17.70
2022-09-14T03:43:24.879Z,17.90
2022-09-14T03:45:51.554Z,17.80
2022-09-14T03:48:18.212Z,19.70
2022-09-14T03:50:44.910Z,20.80
2022-09-14T03:53:11.824Z,17.80
2022-09-14T03:55:40.144Z,17.80
2022-09-14T03:58:06.827Z,17.80
2022-09-14T04:00:33.670Z,19.70
2022-09-14T04:03:00.497Z,17.70
2022-09-14T04:05:30.246Z,19.00
2022-09-14T04:07:57.243Z,20.20
2022-09-14T04:10:23.958Z,21.10
2022-09-14T04:12:50.909Z,15.00
2022-09-14T04:15:17.664Z,21.20
2022-09-14T04:17:44.322Z,17.50
2022-09-14T04:20:11.174Z,20.80
2022-09-14T04:22:37.841Z,20.00
2022-09-14T04:25:05.156Z,21.00
2022-09-14T04:27:31.941Z,17.80
2022-09-14T04:29:58.511Z,15.00
2022-09-14T04:32:25.276Z,19.20
2022-09-14T04:34:51.946Z,21.10
2022-09-14T04:37:18.589Z,20.70
2022-09-14T04:39:45.247Z,20.00
2022-09-14T04:42:12.037Z,20.40
2022-09-14T04:44:38.768Z,19.70
2022-09-14T04:47:05.406Z,19.90
2022-09-14T04:49:32.114Z,17.60
2022-09-14T04:51:58.760Z,19.20
2022-09-14T04:54:25.470Z,18.00
2022-09-14T04:56:52.139Z,21.20
2022-09-14T04:59:18.726Z,19.30
2022-09-14T05:01:47.687Z,17.80
2022-09-14T05:04:14.549Z,18.10
2022-09-14T05:06:42.311Z,19.00
2022-09-14T05:09:14.179Z,19.20
2022-09-14T05:11:41.443Z,17.90
2022-09-14T05:14:09.611Z,20.60
2022-09-14T05:16:37.289Z,18.80
2022-09-14T05:19:05.169Z,17.90
2022-09-14T05:21:32.990Z,19.60
2022-09-14T05:24:01.097Z,18.00
2022-09-14T05:26:28.937Z,20.70
2022-09-14T05:28:56.420Z,18.00
2022-09-14T05:31:24.182Z,19.40
2022-09-14T05:33:50.948Z,20.70
2022-09-14T05:36:17.894Z,20.10
2022-09-14T05:38:44.956Z,20.80
2022-09-14T05:41:12.589Z,20.30
2022-09-14T05:43:39.384Z,18.20
2022-09-14T05:46:16.623Z,18.70
2022-09-14T05:48:43.920Z,18.00
2022-09-14T05:51:14.888Z,19.10
2022-09-14T05:53:43.019Z,18.30
2022-09-14T05:56:11.029Z,18.10
2022-09-14T05:58:38.918Z,20.40
2022-09-14T06:01:11.816Z,21.50
2022-09-14T06:03:38.727Z,18.40
2022-09-14T06:06:06.289Z,18.40
2022-09-14T06:08:33.662Z,18.30
2022-09-14T06:11:07.198Z,20.30
2022-09-14T06:13:34.086Z,18.60
2022-09-14T06:16:04.841Z,18.60
2022-09-14T06:18:32.071Z,18.70
2022-09-14T06:20:58.868Z,21.90
2022-09-14T06:23:26.459Z,19.10
2022-09-14T06:25:54.147Z,18.90
2022-09-14T06:28:20.900Z,18.80
2022-09-14T06:30:47.617Z,18.80
2022-09-14T06:33:14.185Z,20.20
2022-09-14T06:35:42.217Z,19.20
2022-09-14T06:38:09.218Z,18.90
2022-09-14T06:40:36.421Z,19.60
2022-09-14T06:43:02.996Z,18.90
2022-09-14T06:45:30.415Z,20.00
2022-09-14T06:47:57.305Z,19.20
2022-09-14T06:50:24.270Z,20.00
2022-09-14T06:52:51.001Z,20.20
2022-09-14T06:55:17.685Z,19.30
2022-09-14T06:57:46.988Z,21.00
2022-09-14T07:00:13.960Z,21.00
2022-09-14T07:02:41.183Z,19.50
2022-09-14T07:05:08.084Z,19.50
2022-09-14T07:07:34.678Z,20.20
2022-09-14T07:10:01.344Z,21.70
2022-09-14T07:12:28.043Z,19.80
2022-09-14T07:14:54.768Z,19.80
2022-09-14T07:17:21.524Z,20.10
2022-09-14T07:19:48.157Z,19.80
2022-09-14T07:22:14.725Z,21.90
2022-09-14T07:24:41.373Z,21.30
2022-09-14T07:27:07.985Z,23.10
2022-09-14T07:29:34.643Z,20.00
2022-09-14T07:32:01.467Z,20.00
2022-09-14T07:34:28.195Z,20.10
2022-09-14T07:36:54.869Z,21.80
2022-09-14T07:39:21.492Z,21.20
2022-09-14T07:41:49.002Z,20.30
2022-09-14T07:44:16.961Z,21.90
2022-09-14T07:46:44.574Z,20.40
2022-09-14T07:49:11.921Z,21.60
2022-09-14T07:51:38.684Z,20.60
2022-09-14T07:54:06.161Z,20.60
2022-09-14T07:56:34.109Z,20.70
2022-09-14T07:59:23.853Z,20.80
2022-09-14T08:01:48.852Z,23.00
2022-09-14T08:04:15.551Z,21.00
2022-09-14T08:06:42.218Z,21.40
2022-09-14T08:09:09.115Z,21.10
2022-09-14T08:11:36.203Z,21.50
2022-09-14T08:14:04.698Z,24.50
2022-09-14T08:40:51.665Z,21.40
2022-09-14T08:43:30.098Z,21.40
2022-09-14T08:46:05.168Z,21.50
2022-09-14T08:48:35.644Z,21.60
2022-09-14T08:51:21.555Z,21.60
2022-09-14T08:56:40.821Z,21.60
2022-09-14T08:59:31.848Z,21.60
2022-09-14T09:02:20.286Z,21.60
2022-09-14T09:05:07.638Z,23.20
2022-09-14T09:07:34.558Z,21.70
2022-09-14T09:10:04.151Z,21.50
2022-09-14T09:12:38.915Z,21.90
2022-09-14T09:15:27.858Z,21.90
2022-09-14T09:18:00.329Z,20.20
2022-09-14T09:20:32.989Z,20.70
2022-09-14T09:23:07.990Z,22.30
2022-09-14T09:25:52.594Z,22.30
2022-09-14T09:28:27.589Z,22.40
2022-09-14T09:31:22.621Z,22.30
2022-09-14T09:33:49.753Z,21.90
2022-09-14T09:40:22.362Z,20.40
2022-09-14T09:43:04.223Z,20.90
2022-09-14T09:45:49.952Z,22.80
2022-09-14T09:48:18.298Z,22.80
2022-09-14T09:50:50.591Z,23.10
2022-09-14T09:53:18.779Z,23.10
2022-09-14T09:55:48.670Z,23.10
2022-09-14T09:58:35.727Z,23.10
2022-09-14T10:01:07.756Z,23.20
2022-09-14T10:03:37.913Z,23.30
2022-09-14T10:06:07.205Z,23.40
2022-09-14T10:08:39.520Z,23.50
2022-09-14T10:11:06.422Z,23.60
2022-09-14T10:13:38.711Z,23.50
2022-09-14T10:16:14.087Z,23.60
2022-09-14T10:18:46.882Z,23.60
2022-09-14T10:21:17.016Z,23.60
2022-09-14T10:23:44.272Z,23.60
2022-09-14T10:26:14.025Z,23.60
2022-09-14T10:28:42.347Z,21.40
2022-09-14T10:31:18.307Z,23.80
2022-09-14T10:33:46.442Z,23.80
2022-09-14T10:36:32.905Z,23.90
2022-09-14T10:39:12.863Z,24.00
2022-09-14T10:41:46.308Z,24.00
2022-09-14T10:44:13.540Z,24.00
2022-09-14T10:46:46.409Z,24.10
2022-09-14T10:49:25.039Z,24.10
2022-09-14T10:52:01.710Z,24.10
2022-09-14T10:54:31.661Z,24.10
2022-09-14T10:56:58.551Z,24.20
2022-09-14T10:59:31.763Z,24.40
2022-09-14T11:02:17.485Z,24.50
2022-09-14T11:05:02.617Z,24.60
2022-09-14T11:07:48.292Z,24.70
2022-09-14T11:10:27.863Z,24.80
2022-09-14T11:13:09.043Z,24.80
2022-09-14T11:15:42.057Z,25.00
2022-09-14T11:18:08.754Z,25.00
2022-09-14T11:20:42.037Z,24.90
2022-09-14T11:23:17.208Z,24.90
2022-09-14T11:25:49.368Z,24.90
2022-09-14T11:28:22.437Z,24.80
2022-09-14T11:31:07.339Z,24.70
2022-09-14T11:33:34.095Z,24.70
2022-09-14T11:36:19.820Z,24.80
2022-09-14T11:38:54.724Z,24.80
2022-09-14T11:41:30.416Z,24.80
2022-09-14T11:44:03.894Z,24.70
2022-09-14T11:46:39.459Z,24.70
2022-09-14T11:49:19.099Z,24.70
2022-09-14T11:51:54.936Z,24.70
2022-09-14T11:54:22.801Z,24.70
2022-09-14T11:56:50.592Z,24.70
2022-09-14T11:59:36.146Z,24.70
2022-09-14T12:02:31.296Z,24.60
2022-09-14T12:05:07.381Z,24.50
2022-09-14T12:07:43.534Z,24.50
2022-09-14T12:10:16.870Z,24.20
2022-09-14T12:12:43.588Z,23.90
2022-09-14T12:15:13.380Z,23.60
2022-09-14T12:17:41.682Z,23.30
2022-09-14T12:20:20.802Z,23.00
2022-09-14T12:22:50.272Z,22.80
2022-09-14T12:25:17.913Z,22.60
2022-09-14T12:27:45.754Z,22.30
2022-09-14T12:30:48.156Z,22.10
2022-09-14T12:33:33.065Z,21.90
2022-09-14T12:35:59.831Z,21.70
2022-09-14T12:38:29.548Z,21.50
2022-09-14T12:40:57.288Z,21.40
2022-09-14T12:43:33.259Z,21.20
2022-09-14T12:46:01.141Z,21.10
2022-09-14T12:48:49.481Z,21.10
2022-09-14T12:51:29.039Z,21.00
2022-09-14T12:53:59.073Z,20.90
2022-09-14T12:56:28.717Z,20.80
2022-09-14T12:59:02.649Z,20.70
2022-09-14T13:01:49.080Z,20.60
2022-09-14T13:04:19.440Z,20.40
2022-09-14T13:06:47.210Z,20.50
2022-09-14T13:09:21.428Z,20.40
2022-09-14T13:12:08.329Z,20.30
2022-09-14T13:14:44.991Z,20.30
2022-09-14T13:17:13.495Z,20.30
2022-09-14T13:19:40.562Z,20.20
2022-09-14T13:22:21.115Z,20.20
2022-09-14T13:24:48.754Z,20.20
2022-09-14T13:27:20.957Z,20.20
2022-09-14T13:29:48.489Z,20.30
2022-09-14T13:32:17.960Z,20.30
2022-09-14T13:34:44.619Z,20.40
2022-09-14T13:37:13.599Z,20.40
2022-09-14T13:39:41.942Z,19.60
2022-09-14T13:42:09.342Z,20.30
2022-09-14T13:44:37.128Z,20.30
2022-09-14T13:47:05.375Z,20.30
2022-09-14T13:49:34.061Z,20.10
2022-09-14T13:52:19.258Z,20.10
2022-09-14T13:54:46.684Z,20.00
2022-09-14T13:57:13.324Z,20.00
2022-09-14T13:59:59.487Z,20.00
2022-09-14T14:02:27.798Z,19.90
2022-09-14T14:04:54.487Z,22.50
2022-09-14T14:07:31.796Z,21.20
2022-09-14T14:09:59.637Z,21.50
2022-09-14T14:12:30.699Z,21.40
2022-09-14T14:14:58.678Z,20.00
2022-09-14T14:17:30.726Z,20.80
2022-09-14T14:19:58.674Z,21.40
2022-09-14T14:22:25.554Z,22.50
2022-09-14T14:27:43.282Z,20.00
2022-09-14T14:30:20.183Z,21.90
2022-09-14T14:32:54.669Z,19.80
2022-09-14T14:35:25.974Z,19.70
2022-09-14T14:37:52.659Z,19.60
2022-09-14T14:40:19.765Z,19.40
2022-09-14T14:42:46.822Z,19.40
2022-09-14T14:45:19.178Z,19.20
2022-09-14T14:47:50.648Z,19.00
2022-09-14T14:50:25.160Z,19.00
2022-09-14T14:52:51.974Z,19.00
2022-09-14T14:55:20.256Z,20.40
2022-09-14T14:57:47.339Z,19.10
2022-09-14T15:00:15.718Z,19.20
2022-09-14T15:02:42.639Z,19.00
2022-09-14T15:05:09.797Z,19.80
2022-09-14T15:07:37.875Z,18.90
2022-09-14T15:10:05.389Z,18.90
2022-09-14T15:12:32.419Z,18.90
2022-09-14T15:15:01.546Z,20.80
2022-09-14T15:17:28.576Z,18.90
2022-09-14T15:19:55.216Z,19.00
2022-09-14T15:22:21.970Z,18.90
2022-09-14T15:24:48.694Z,18.90
2022-09-14T15:27:15.453Z,20.80
2022-09-14T15:29:44.611Z,19.70
2022-09-14T15:32:11.457Z,19.00
2022-09-14T15:34:41.460Z,19.00
2022-09-14T15:37:08.894Z,19.00
2022-09-14T15:39:35.713Z,19.10
2022-09-14T15:42:03.316Z,19.20
2022-09-14T15:44:30.941Z,20.50
2022-09-14T15:46:57.650Z,19.40
2022-09-14T15:49:28.312Z,19.40
2022-09-14T15:51:55.784Z,19.50
2022-09-14T15:54:23.130Z,20.20
2022-09-14T15:59:54.756Z,19.40
2022-09-14T16:02:21.478Z,19.60
2022-09-14T16:04:48.094Z,20.60
2022-09-14T16:07:14.734Z,19.70
2022-09-14T16:09:41.693Z,19.30
2022-09-14T16:12:09.241Z,19.30
2022-09-14T16:14:35.878Z,20.70
2022-09-14T16:17:02.796Z,19.30
2022-09-14T16:19:29.752Z,19.30
2022-09-14T16:21:56.453Z,19.40
2022-09-14T16:24:24.228Z,19.80
2022-09-14T16:26:51.237Z,20.40
2022-09-14T16:29:18.728Z,19.30
2022-09-14T16:31:46.973Z,20.10
2022-09-14T16:34:18.184Z,20.00
2022-09-14T16:36:44.785Z,19.30
2022-09-14T16:39:16.004Z,20.60
2022-09-14T16:41:42.712Z,19.30
2022-09-14T16:44:13.524Z,20.30
2022-09-14T16:46:40.305Z,19.30
2022-09-14T16:49:07.269Z,19.10
2022-09-14T16:51:34.135Z,19.50
2022-09-14T16:54:00.836Z,19.30
2022-09-14T16:56:29.335Z,19.30
2022-09-14T16:58:56.290Z,19.30
2022-09-14T17:01:24.863Z,19.40
2022-09-14T17:03:52.633Z,19.30
2022-09-14T17:06:20.643Z,20.90
2022-09-14T17:08:47.643Z,19.50
2022-09-14T17:11:15.555Z,19.20
2022-09-14T17:13:46.260Z,20.30
2022-09-14T17:16:15.595Z,19.10
2022-09-14T17:18:43.601Z,21.20
2022-09-14T17:21:14.701Z,20.70
2022-09-14T17:23:41.666Z,19.10
2022-09-14T17:26:09.928Z,21.40
2022-09-14T17:28:37.664Z,18.80
2022-09-14T17:31:05.848Z,18.80
2022-09-14T17:33:34.304Z,18.70
2022-09-14T17:36:01.409Z,18.60
2022-09-14T17:38:29.722Z,18.50
2022-09-14T17:41:04.521Z,18.60
2022-09-14T17:43:31.883Z,18.50
2022-09-14T17:45:58.925Z,18.40
2022-09-14T17:48:27.646Z,18.40
2022-09-14T17:50:54.834Z,19.80
2022-09-14T17:53:22.548Z,18.30
2022-09-14T17:55:49.162Z,18.20
2022-09-14T17:58:19.580Z,18.20
2022-09-14T18:00:46.650Z,19.10
2022-09-14T18:03:13.333Z,19.00
2022-09-14T18:05:40.036Z,18.10
2022-09-14T18:08:06.820Z,18.10
2022-09-14T18:10:35.194Z,18.10
2022-09-14T18:13:01.818Z,18.60
2022-09-14T18:15:30.917Z,18.20
2022-09-14T18:17:57.738Z,18.10
2022-09-14T18:20:24.423Z,18.10
2022-09-14T18:22:50.975Z,18.00
2022-09-14T18:25:17.677Z,19.60
2022-09-14T18:27:44.389Z,18.00
2022-09-14T18:30:11.109Z,17.90
2022-09-14T18:32:37.781Z,17.90
2022-09-14T18:35:04.764Z,17.90
2022-09-14T18:37:31.622Z,17.80
2022-09-14T18:39:58.361Z,18.60
2022-09-14T18:42:25.123Z,17.10
2022-09-14T18:44:53.943Z,17.70
2022-09-14T18:47:22.405Z,17.80
2022-09-14T18:49:50.030Z,17.70
2022-09-14T18:52:17.867Z,17.90
2022-09-14T18:54:44.749Z,17.70
2022-09-14T18:57:11.589Z,18.50
2022-09-14T18:59:38.344Z,17.60
2022-09-14T19:02:05.094Z,17.70
2022-09-14T19:04:31.824Z,17.60
2022-09-14T19:06:58.446Z,18.90
2022-09-14T19:09:25.106Z,17.60
2022-09-14T19:11:51.713Z,17.60
2022-09-14T19:14:20.547Z,17.50
2022-09-14T19:16:47.433Z,17.50
2022-09-14T19:19:14.690Z,17.60
2022-09-14T19:21:41.353Z,19.60
2022-09-14T19:24:11.333Z,17.50
2022-09-14T19:26:44.646Z,17.60
2022-09-14T19:29:12.490Z,17.40
2022-09-14T19:31:39.086Z,19.00
2022-09-14T19:34:05.902Z,17.70
2022-09-14T19:36:34.736Z,17.40
2022-09-14T19:39:02.012Z,17.30
2022-09-14T19:41:29.805Z,19.00
2022-09-14T19:43:56.462Z,19.20
2022-09-14T19:46:26.314Z,15.40
2022-09-14T19:48:53.419Z,17.20
2022-09-14T19:51:25.246Z,17.20
2022-09-14T19:53:53.181Z,17.20
2022-09-14T19:56:21.677Z,17.20
2022-09-14T19:58:49.549Z,18.50
2022-09-14T20:01:17.033Z,19.60
2022-09-14T20:03:44.772Z,17.10
2022-09-14T20:06:19.221Z,17.10
2022-09-14T20:08:46.783Z,17.10
2022-09-14T20:11:17.746Z,18.40
2022-09-14T20:13:47.746Z,17.00
2022-09-14T20:16:14.350Z,17.10
2022-09-14T20:18:41.390Z,16.90
2022-09-14T20:21:09.106Z,16.90
2022-09-14T20:23:35.758Z,16.90
2022-09-14T20:26:03.960Z,18.10
2022-09-14T20:28:33.060Z,17.40
2022-09-14T20:31:00.582Z,18.30
2022-09-14T20:33:27.978Z,16.70
2022-09-14T20:35:58.432Z,16.80
2022-09-14T20:38:25.081Z,16.70
2022-09-14T20:40:59.081Z,17.90
2022-09-14T20:43:26.301Z,16.70
2022-09-14T20:46:03.355Z,16.80
2022-09-14T20:48:30.567Z,17.70
2022-09-14T20:50:57.641Z,17.00
2022-09-14T20:53:24.781Z,16.90
2022-09-14T20:55:51.844Z,16.90
2022-09-14T20:58:18.782Z,19.20
2022-09-14T21:00:45.609Z,17.10
2022-09-14T21:03:12.693Z,17.80
2022-09-14T21:05:39.650Z,17.00
2022-09-14T21:08:06.947Z,19.80
2022-09-14T21:10:36.843Z,17.90
2022-09-14T21:13:03.456Z,16.90
2022-09-14T21:15:31.654Z,17.40
2022-09-14T21:17:58.242Z,18.70
2022-09-14T21:20:24.868Z,18.00
2022-09-14T21:22:51.687Z,17.00
2022-09-14T21:25:18.314Z,17.10
2022-09-14T21:27:44.868Z,17.60
2022-09-14T21:30:11.609Z,18.00
2022-09-14T21:32:38.281Z,17.30
2022-09-14T21:35:05.283Z,17.40
2022-09-14T21:37:31.906Z,17.30
2022-09-14T21:39:58.662Z,18.40
2022-09-14T21:42:25.260Z,18.10
2022-09-14T21:44:51.914Z,17.50
2022-09-14T21:47:18.474Z,17.60
2022-09-14T21:49:45.213Z,17.50
2022-09-14T21:52:11.880Z,17.40
2022-09-14T21:54:38.633Z,18.40
2022-09-14T21:57:05.356Z,17.40
2022-09-14T21:59:31.967Z,17.40
2022-09-14T22:01:58.674Z,17.80
2022-09-14T22:04:26.309Z,17.90
2022-09-14T22:06:53.183Z,18.70
2022-09-14T22:09:21.011Z,18.10
2022-09-14T22:11:47.605Z,17.40
2022-09-14T22:14:15.356Z,17.40
2022-09-14T22:16:42.111Z,17.40
2022-09-14T22:19:13.418Z,17.30
2022-09-14T22:21:40.120Z,20.20
2022-09-14T22:24:10.395Z,17.40
2022-09-14T22:26:39.491Z,17.30
2022-09-14T22:29:06.992Z,18.40
2022-09-14T22:31:33.673Z,17.60
2022-09-14T22:34:00.296Z,17.10
2022-09-14T22:36:27.194Z,17.10
2022-09-14T22:38:57.405Z,17.00
2022-09-14T22:41:25.960Z,17.00
2022-09-14T22:43:52.954Z,17.10
2022-09-14T22:46:19.765Z,17.40
2022-09-14T22:48:46.947Z,16.90
2022-09-14T22:51:15.025Z,17.00
2022-09-14T22:53:41.952Z,18.50
2022-09-14T22:56:09.682Z,18.60
2022-09-14T22:58:36.795Z,17.20
2022-09-14T23:01:14.674Z,17.30
2022-09-14T23:03:41.657Z,17.30
2022-09-14T23:06:08.369Z,17.60
2022-09-14T23:08:35.992Z,17.40
2022-09-14T23:11:07.488Z,17.40
2022-09-14T23:13:37.762Z,17.40
2022-09-14T23:16:18.128Z,17.40
2022-09-14T23:18:45.033Z,17.40
2022-09-14T23:21:13.154Z,17.60
2022-09-14T23:23:39.864Z,17.40
2022-09-14T23:26:09.678Z,17.90
2022-09-14T23:28:36.941Z,19.10
2022-09-14T23:31:04.057Z,17.40
2022-09-14T23:33:31.007Z,17.50
2022-09-14T23:35:57.785Z,18.10
2022-09-14T23:38:24.393Z,18.10
2022-09-14T23:40:51.125Z,17.40
2022-09-14T23:43:18.190Z,17.60
2022-09-14T23:45:45.481Z,17.50
2022-09-14T23:48:12.515Z,17.80
2022-09-14T23:50:39.589Z,17.30
2022-09-14T23:53:06.526Z,17.30
2022-09-14T23:55:36.593Z,17.70
2022-09-14T23:58:03.523Z,17.40
